Shkoder, Albania
Current Conditions -  °F | °C
As of 11:00 PM on Sunday 21 Dec 2014 (Local Time) from LYPG Reporting Station
Clear Clear  
Wind Chill: 37°   Ceiling: Unl
Heat Index: 45°   Visibility: 6mi
Dew Point: 21°   Wind: 16mph
Humidity: 39%   Direction: 360°N
Pressure: 30.45"   Gusts: NA
Location:  42.07°N, 19.51°E
Report Text: LYPG 212100Z 36014KT 340V140 CAVOK 07/M06 Q1031 NOSIG
Loading
Personal Weather Stations






























Interactive Weather Map New forecast layout! Learn more

10-Day Weather Forecast

Advertisements
Track Severe Weather on mobile